This is the latest recevied weather packets stored in our database for station/object F4ECA-13. If no packets are shown the sender has not sent any weather packets the latest 10 day(s).
| Time | Temp. | Humidity | Pressure | Rain* | Wind** | Luminosity | Snow |
|---|---|---|---|---|---|---|---|
| 1777344924 | 17.22° C | - | - | 0 mm | - | - | - |
| 1777344324 | 17.22° C | - | - | 43.18 mm | - | - | - |
| 1777340722 | 17.78° C | 34% | 1012.2 hPa | 0 mm | - | - | - |
| 1777285527 | 26.11° C | - | - | 0 mm | - | - | - |
| 1777281946 | 28.33° C | 28% | 1016.4 hPa | 0 mm | - | - | - |
| 1777279528 | 27.78° C | 27% | 1016.4 hPa | 0 mm | - | - | - |
| 1777275324 | 27.22° C | 28% | 1016.4 hPa | 0 mm | - | - | - |
| 1777272944 | 26.67° C | 29% | 1017.5 hPa | 43.18 mm | - | - | - |
| 1777272328 | 25° C | 30% | 1017.5 hPa | 0 mm | - | - | - |
| 1777271728 | 24.44° C | 30% | 1017.5 hPa | 0 mm | - | - | - |
| 1777266956 | 14.44° C | 35% | 1016.4 hPa | 0 mm | - | - | - |
| 1777263925 | 13.89° C | 34% | 1016.4 hPa | 0 mm | - | - | - |
| 1777260925 | 14.44° C | 34% | 1016.4 hPa | 0 mm | - | - | - |
| 1777257924 | 15° C | 34% | 1016.4 hPa | 0 mm | - | - | - |
| 1777254324 | 15.56° C | 34% | 1016.4 hPa | 0 mm | - | - | - |
| 1777251945 | 16.11° C | 34% | 1017.5 hPa | 0 mm | - | - | - |
| 1777239324 | - | - | 1017.5 hPa | 0 mm | - | - | - |
| 1777233324 | 20.56° C | 34% | 1017.5 hPa | 0 mm | - | - | - |
| 1777227923 | 19.44° C | 33% | 1016.4 hPa | 0 mm | - | - | - |
| 1777226730 | 20° C | 33% | 1016.4 hPa | 0 mm | - | - | - |
| 1777218344 | 23.33° C | 29% | 1017.5 hPa | 0 mm | - | - | - |
| 1777216525 | 23.89° C | 28% | 1017.5 hPa | 0 mm | - | - | - |
| 1777212919 | 24.44° C | 28% | 1017.5 hPa | 0 mm | - | - | - |
| 1777209330 | 25° C | 27% | 1017.5 hPa | 0 mm | - | - | - |
| 1777205766 | 25.56° C | 27% | 1017.5 hPa | 0 mm | - | - | - |
* Rain latest hour (hover to see other rain measurements)
** Current wind speed in m/s (hover to see current wind gust speed)